createdAt,value
2023-03-15T00:00:06.767Z,8.769356
2023-03-15T00:01:06.785Z,8.769299
2023-03-15T00:02:06.765Z,8.769360
2023-03-15T00:03:06.704Z,8.769318
2023-03-15T00:04:06.711Z,8.769323
2023-03-15T00:05:06.725Z,8.769347
2023-03-15T00:06:06.704Z,8.769251
2023-03-15T00:07:06.750Z,8.769282
2023-03-15T00:08:06.675Z,8.769316
2023-03-15T00:09:06.670Z,8.769279
2023-03-15T00:10:06.652Z,8.769306
2023-03-15T00:11:06.649Z,8.769325
2023-03-15T00:12:06.648Z,8.769234
2023-03-15T00:13:06.664Z,8.769241
2023-03-15T00:14:06.643Z,8.769307
2023-03-15T00:15:06.654Z,8.769330
2023-03-15T00:16:06.635Z,8.769349
2023-03-15T00:17:06.599Z,8.769284
2023-03-15T00:18:06.604Z,8.769294
2023-03-15T00:19:06.619Z,8.769277
2023-03-15T00:20:06.598Z,8.769278
2023-03-15T00:21:06.590Z,8.769276
2023-03-15T00:22:06.556Z,8.769265
2023-03-15T00:23:06.568Z,8.769254
2023-03-15T00:24:06.571Z,8.769250
2023-03-15T00:25:06.608Z,8.769292
2023-03-15T00:26:06.558Z,8.769368
2023-03-15T00:27:06.527Z,8.769313
2023-03-15T00:28:06.550Z,8.769344
2023-03-15T00:29:06.532Z,8.769276
2023-03-15T00:30:06.522Z,8.769328
2023-03-15T00:31:06.568Z,8.769356
2023-03-15T00:32:06.538Z,8.769353
2023-03-15T00:33:06.522Z,8.769311
2023-03-15T00:34:06.506Z,8.769370
2023-03-15T00:35:06.501Z,8.769334
2023-03-15T00:36:06.605Z,8.769341
2023-03-15T00:37:06.716Z,8.769377
2023-03-15T00:38:06.460Z,8.769404
2023-03-15T00:39:06.483Z,8.769372
2023-03-15T00:40:06.478Z,8.769395
2023-03-15T00:41:06.447Z,8.769361
2023-03-15T00:42:06.458Z,8.769363
2023-03-15T00:43:06.480Z,8.769395
2023-03-15T00:44:06.510Z,8.769370
2023-03-15T00:45:06.422Z,8.769282
2023-03-15T00:46:06.469Z,8.769307
2023-03-15T00:47:06.430Z,8.769297
2023-03-15T00:48:06.381Z,8.769343
2023-03-15T00:49:06.422Z,8.769368
2023-03-15T00:50:06.386Z,8.769371
2023-03-15T00:51:06.385Z,8.769371
2023-03-15T00:52:06.366Z,8.769385
2023-03-15T00:53:06.368Z,8.769392
2023-03-15T00:54:06.341Z,8.769371
2023-03-15T00:55:06.384Z,8.769356
2023-03-15T00:56:06.340Z,8.769374
2023-03-15T00:57:06.341Z,8.769381
2023-03-15T00:58:06.294Z,8.769373
2023-03-15T00:59:06.311Z,8.769374
2023-03-15T01:00:06.332Z,8.769384
2023-03-15T01:01:06.360Z,8.769292
2023-03-15T01:02:06.334Z,8.769278
2023-03-15T01:03:06.436Z,8.769327
2023-03-15T01:04:06.359Z,8.769299
2023-03-15T01:05:06.297Z,8.769290
2023-03-15T01:06:06.282Z,8.769319
2023-03-15T01:07:06.300Z,8.769266
2023-03-15T01:08:06.238Z,8.769292
2023-03-15T01:09:06.292Z,8.769320
2023-03-15T01:10:06.263Z,8.769325
2023-03-15T01:11:06.285Z,8.769377
2023-03-15T01:12:06.228Z,8.769358
2023-03-15T01:13:06.277Z,8.769349
2023-03-15T01:14:06.251Z,8.769352
2023-03-15T01:15:06.205Z,8.769364
2023-03-15T01:16:06.345Z,8.769373
2023-03-15T01:17:06.329Z,8.769356
2023-03-15T01:18:06.209Z,8.769380
2023-03-15T01:19:06.243Z,8.769354
2023-03-15T01:20:06.178Z,8.769327
2023-03-15T01:21:06.182Z,8.769310
2023-03-15T01:22:06.147Z,8.769331
2023-03-15T01:23:06.146Z,8.769301
2023-03-15T01:24:06.168Z,8.769341
2023-03-15T01:25:06.193Z,8.769338
2023-03-15T01:26:06.158Z,8.769360
2023-03-15T01:27:06.106Z,8.769329
2023-03-15T01:28:06.141Z,8.769337
2023-03-15T01:29:06.125Z,8.769344
2023-03-15T01:30:06.138Z,8.769315
2023-03-15T01:31:06.187Z,8.769295
2023-03-15T01:32:06.168Z,8.769334
2023-03-15T01:33:06.074Z,8.769315
2023-03-15T01:34:06.065Z,8.769311
2023-03-15T01:35:06.076Z,8.769359
2023-03-15T01:36:06.158Z,8.769358
2023-03-15T01:37:06.126Z,8.769359
2023-03-15T01:38:06.056Z,8.769329
2023-03-15T01:39:06.036Z,8.769351
2023-03-15T01:40:06.054Z,8.769336
2023-03-15T01:41:06.075Z,8.769331
2023-03-15T01:42:06.021Z,8.769294
2023-03-15T01:43:06.284Z,8.769345
2023-03-15T01:44:06.014Z,8.769331
2023-03-15T01:45:06.006Z,8.769336
2023-03-15T01:46:05.994Z,8.769361
2023-03-15T01:47:06.075Z,8.769345
2023-03-15T01:48:05.987Z,8.769351
2023-03-15T01:49:06.011Z,8.769357
2023-03-15T01:50:05.977Z,8.769312
2023-03-15T01:51:05.951Z,8.769288
2023-03-15T01:52:05.946Z,8.769295
2023-03-15T01:53:06.020Z,8.769305
2023-03-15T01:54:06.486Z,8.769347
2023-03-15T01:55:05.973Z,8.769346
2023-03-15T01:56:05.915Z,8.769316
2023-03-15T01:57:05.907Z,8.769296
2023-03-15T01:58:05.920Z,8.769299
2023-03-15T01:59:05.926Z,8.769314
2023-03-15T02:00:05.868Z,8.769360
2023-03-15T02:01:05.999Z,8.769341
2023-03-15T02:02:05.933Z,8.769273
2023-03-15T02:03:05.862Z,8.769268
2023-03-15T02:04:05.824Z,8.769243
2023-03-15T02:05:05.857Z,8.769316
2023-03-15T02:06:05.828Z,8.769364
2023-03-15T02:07:05.894Z,8.769350
2023-03-15T02:08:05.819Z,8.769391
2023-03-15T02:09:05.812Z,8.769213
2023-03-15T02:10:05.939Z,8.769389
2023-03-15T02:11:05.792Z,8.769378
2023-03-15T02:12:05.796Z,8.769335
2023-03-15T02:13:05.866Z,8.769361
2023-03-15T02:14:05.773Z,8.769341
2023-03-15T02:15:05.769Z,8.769367
2023-03-15T02:16:05.780Z,8.769313
2023-03-15T02:17:05.773Z,8.769280
2023-03-15T02:18:05.755Z,8.769319
2023-03-15T02:19:05.839Z,8.769298
2023-03-15T02:20:05.752Z,8.769320
2023-03-15T02:21:05.719Z,8.769325
2023-03-15T02:22:05.718Z,8.769403
2023-03-15T02:23:05.952Z,8.769410
2023-03-15T02:24:05.701Z,8.769232
2023-03-15T02:25:05.748Z,8.769355
2023-03-15T02:26:05.717Z,8.769279
2023-03-15T02:27:05.708Z,8.769245
2023-03-15T02:28:05.703Z,8.769197
2023-03-15T02:29:05.681Z,8.769197
2023-03-15T02:30:05.662Z,8.769176
2023-03-15T02:31:05.726Z,8.769146
2023-03-15T02:32:05.768Z,8.769173
2023-03-15T02:33:05.664Z,8.769227
2023-03-15T02:34:05.629Z,8.769286
2023-03-15T02:35:05.629Z,8.769294
2023-03-15T02:36:05.622Z,8.769321
2023-03-15T02:37:05.680Z,8.769240
2023-03-15T02:38:05.626Z,8.769260
2023-03-15T02:39:05.620Z,8.769299
2023-03-15T02:40:05.612Z,8.769324
2023-03-15T02:41:05.580Z,8.769278
2023-03-15T02:42:05.607Z,8.769302
2023-03-15T02:43:05.632Z,8.769327
2023-03-15T02:44:05.557Z,8.769327
2023-03-15T02:45:05.559Z,8.769318
2023-03-15T02:46:05.590Z,8.769280
2023-03-15T02:47:05.540Z,8.769321
2023-03-15T02:48:05.549Z,8.769321
2023-03-15T02:49:05.873Z,8.769343
2023-03-15T02:50:05.527Z,8.769340
2023-03-15T02:51:05.520Z,8.769297
2023-03-15T02:52:05.539Z,8.769276
2023-03-15T02:53:05.510Z,8.769303
2023-03-15T02:54:05.513Z,8.769326
2023-03-15T02:55:05.566Z,8.769281
2023-03-15T02:56:05.555Z,8.769261
2023-03-15T02:57:05.467Z,8.769242
2023-03-15T02:58:05.478Z,8.769345
2023-03-15T02:59:05.484Z,8.769341
2023-03-15T03:00:05.466Z,8.769320
2023-03-15T03:01:05.625Z,8.769331
2023-03-15T03:02:05.499Z,8.769337
2023-03-15T03:03:05.463Z,8.769292
2023-03-15T03:04:05.416Z,8.769334
2023-03-15T03:05:05.424Z,8.769337
2023-03-15T03:06:05.409Z,8.769315
2023-03-15T03:07:05.444Z,8.769339
2023-03-15T03:08:05.413Z,8.769324
2023-03-15T03:09:05.408Z,8.769301
2023-03-15T03:10:05.390Z,8.769327
2023-03-15T03:11:05.411Z,8.769422
2023-03-15T03:12:05.365Z,8.769370
2023-03-15T03:13:05.405Z,8.769327
2023-03-15T03:14:05.351Z,8.769406
2023-03-15T03:15:05.342Z,8.769401
2023-03-15T03:16:05.337Z,8.769294
2023-03-15T03:17:05.342Z,8.769375
2023-03-15T03:18:05.351Z,8.769463
2023-03-15T03:19:05.351Z,8.769290
2023-03-15T03:20:05.315Z,8.769252
2023-03-15T03:21:05.288Z,8.769267
2023-03-15T03:22:05.303Z,8.769299
2023-03-15T03:23:05.316Z,8.769315
2023-03-15T03:24:05.294Z,8.769285
2023-03-15T03:25:05.310Z,8.769247
2023-03-15T03:26:05.268Z,8.769162
2023-03-15T03:27:05.246Z,8.769112
2023-03-15T03:28:05.243Z,8.769326
2023-03-15T03:29:05.238Z,8.769315
2023-03-15T03:30:05.243Z,8.769293
2023-03-15T03:31:05.272Z,8.769264
2023-03-15T03:32:05.218Z,8.769263
2023-03-15T03:33:05.247Z,8.769261
2023-03-15T03:34:05.216Z,8.769181
2023-03-15T03:35:05.194Z,8.769090
2023-03-15T03:36:05.248Z,8.769352
2023-03-15T03:37:05.424Z,8.769285
2023-03-15T03:38:05.177Z,8.769204
2023-03-15T03:39:05.165Z,8.769301
2023-03-15T03:40:05.180Z,8.769245
2023-03-15T03:41:05.146Z,8.769256
2023-03-15T03:42:05.133Z,8.769350
2023-03-15T03:43:05.200Z,8.769308
2023-03-15T03:44:05.218Z,8.769341
2023-03-15T03:45:05.138Z,8.769253
2023-03-15T03:46:05.130Z,8.769203
2023-03-15T03:47:05.126Z,8.769278
2023-03-15T03:48:05.091Z,8.769317
2023-03-15T03:49:05.378Z,8.769338
2023-03-15T03:50:05.085Z,8.769251
2023-03-15T03:51:05.087Z,8.769263
2023-03-15T03:52:05.048Z,8.769294
2023-03-15T03:53:05.051Z,8.769190
2023-03-15T03:54:05.054Z,8.769174
2023-03-15T03:55:05.477Z,8.769314
2023-03-15T03:56:05.035Z,8.769272
2023-03-15T03:57:05.039Z,8.769273
2023-03-15T03:58:05.028Z,8.769314
2023-03-15T03:59:05.023Z,8.769287
2023-03-15T04:00:05.015Z,8.769295
2023-03-15T04:01:05.068Z,8.769262
2023-03-15T04:02:04.992Z,8.769441
2023-03-15T04:03:04.995Z,8.769390
2023-03-15T04:04:04.976Z,8.769283
2023-03-15T04:05:04.970Z,8.769294
2023-03-15T04:06:04.987Z,8.769339
2023-03-15T04:07:05.044Z,8.769369
2023-03-15T04:08:04.961Z,8.769266
2023-03-15T04:09:04.969Z,8.769344
2023-03-15T04:10:04.941Z,8.769311
2023-03-15T04:11:04.943Z,8.769231
2023-03-15T04:12:04.934Z,8.769266
2023-03-15T04:13:05.007Z,8.769288
2023-03-15T04:14:04.946Z,8.769359
2023-03-15T04:15:04.959Z,8.769328
2023-03-15T04:16:04.910Z,8.769297
2023-03-15T04:17:04.940Z,8.769307
2023-03-15T04:18:04.894Z,8.769331
2023-03-15T04:19:05.013Z,8.769305
2023-03-15T04:20:04.882Z,8.769331
2023-03-15T04:21:04.886Z,8.769324
2023-03-15T04:22:04.874Z,8.769258
2023-03-15T04:23:04.864Z,8.769379
2023-03-15T04:24:04.881Z,8.769365
2023-03-15T04:25:04.905Z,8.769346
2023-03-15T04:26:04.867Z,8.769301
2023-03-15T04:27:04.806Z,8.769267
2023-03-15T04:28:04.835Z,8.769291
2023-03-15T04:29:04.874Z,8.769325
2023-03-15T04:30:04.802Z,8.769320
2023-03-15T04:31:04.846Z,8.769341
2023-03-15T04:32:04.791Z,8.769323
2023-03-15T04:33:04.802Z,8.769350
2023-03-15T04:34:04.785Z,8.769302
2023-03-15T04:35:04.781Z,8.769361
2023-03-15T04:36:04.845Z,8.769333
2023-03-15T04:37:04.809Z,8.769349
2023-03-15T04:38:04.768Z,8.769337
2023-03-15T04:39:04.773Z,8.769352
2023-03-15T04:40:04.764Z,8.769339
2023-03-15T04:41:04.732Z,8.769319
2023-03-15T04:42:04.728Z,8.769373
2023-03-15T04:43:04.762Z,8.769338
2023-03-15T04:44:04.731Z,8.769337
2023-03-15T04:45:04.714Z,8.769302
2023-03-15T04:46:04.706Z,8.769334
2023-03-15T04:47:04.714Z,8.769279
2023-03-15T04:48:04.689Z,8.769310
2023-03-15T04:49:04.723Z,8.769308
2023-03-15T04:50:04.662Z,8.769287
2023-03-15T04:51:04.658Z,8.769376
2023-03-15T04:52:04.662Z,8.769331
2023-03-15T04:53:04.646Z,8.769376
2023-03-15T04:54:04.636Z,8.769372
2023-03-15T04:55:04.755Z,8.769303
2023-03-15T04:56:04.931Z,8.769341
2023-03-15T04:57:04.624Z,8.769320
2023-03-15T04:58:04.627Z,8.769363
2023-03-15T04:59:04.605Z,8.769358
2023-03-15T05:00:04.614Z,8.769239
2023-03-15T05:01:04.912Z,8.769223
2023-03-15T05:02:04.625Z,8.769376
2023-03-15T05:03:04.595Z,8.769239
2023-03-15T05:04:04.582Z,8.769160
2023-03-15T05:05:04.552Z,8.769302
2023-03-15T05:06:04.561Z,8.769312
2023-03-15T05:07:04.600Z,8.769336
2023-03-15T05:08:04.547Z,8.769333
2023-03-15T05:09:04.560Z,8.769277
2023-03-15T05:10:04.530Z,8.769258
2023-03-15T05:11:04.523Z,8.769283
2023-03-15T05:12:04.495Z,8.769268
2023-03-15T05:13:04.590Z,8.769248
2023-03-15T05:14:04.536Z,8.769257
2023-03-15T05:15:04.549Z,8.769273
2023-03-15T05:16:04.539Z,8.769229
2023-03-15T05:17:04.483Z,8.769267
2023-03-15T05:18:04.461Z,8.769227
2023-03-15T05:19:04.524Z,8.769288
2023-03-15T05:20:04.472Z,8.769288
2023-03-15T05:21:04.433Z,8.769283
2023-03-15T05:22:04.434Z,8.769219
2023-03-15T05:23:04.417Z,8.769243
2023-03-15T05:24:04.449Z,8.769271
2023-03-15T05:25:04.442Z,8.769272
2023-03-15T05:26:04.436Z,8.769266
2023-03-15T05:27:04.422Z,8.769267
2023-03-15T05:28:04.421Z,8.769318
2023-03-15T05:29:04.391Z,8.769399
2023-03-15T05:30:04.423Z,8.769383
2023-03-15T05:31:04.439Z,8.769297
2023-03-15T05:32:04.433Z,8.769361
2023-03-15T05:33:04.387Z,8.769266
2023-03-15T05:34:04.390Z,8.769234
2023-03-15T05:35:04.400Z,8.769378
2023-03-15T05:36:04.364Z,8.769249
2023-03-15T05:37:04.417Z,8.769246
2023-03-15T05:38:04.368Z,8.769228
2023-03-15T05:39:04.309Z,8.769225
2023-03-15T05:40:04.316Z,8.769279
2023-03-15T05:41:04.299Z,8.769313
2023-03-15T05:42:04.314Z,8.769300
2023-03-15T05:43:04.329Z,8.769303
2023-03-15T05:44:04.288Z,8.769179
2023-03-15T05:45:04.306Z,8.769217
2023-03-15T05:46:04.319Z,8.769125
2023-03-15T05:47:04.310Z,8.769129
2023-03-15T05:48:04.253Z,8.769047
2023-03-15T05:49:04.326Z,8.769268
2023-03-15T05:50:04.262Z,8.769235
2023-03-15T05:51:04.233Z,8.769241
2023-03-15T05:52:04.233Z,8.769232
2023-03-15T05:53:04.262Z,8.769293
2023-03-15T05:54:04.216Z,8.769326
2023-03-15T05:55:04.254Z,8.769258
2023-03-15T05:56:04.218Z,8.769274
2023-03-15T05:57:04.199Z,8.769284
2023-03-15T05:58:04.218Z,8.769323
2023-03-15T05:59:04.193Z,8.769242
2023-03-15T06:00:04.191Z,8.769238
2023-03-15T06:01:04.585Z,8.769238
2023-03-15T06:02:04.158Z,8.769247
2023-03-15T06:03:04.156Z,8.769296
2023-03-15T06:04:04.166Z,8.769288
2023-03-15T06:05:04.151Z,8.769304
2023-03-15T06:06:04.125Z,8.769304
2023-03-15T06:07:04.158Z,8.769258
2023-03-15T06:08:04.155Z,8.769240
2023-03-15T06:09:04.112Z,8.769260
2023-03-15T06:10:04.100Z,8.769302
2023-03-15T06:11:04.084Z,8.769283
2023-03-15T06:12:04.085Z,8.769295
2023-03-15T06:13:04.115Z,8.769310
2023-03-15T06:14:04.057Z,8.769289
2023-03-15T06:15:04.076Z,8.769378
2023-03-15T06:16:04.052Z,8.769239
2023-03-15T06:17:04.042Z,8.769277
2023-03-15T06:18:04.065Z,8.769275
2023-03-15T06:19:04.091Z,8.769251
2023-03-15T06:20:04.040Z,8.769286
2023-03-15T06:21:04.030Z,8.769290
2023-03-15T06:22:04.022Z,8.769310
2023-03-15T06:23:04.018Z,8.769215
2023-03-15T06:24:04.005Z,8.769243
2023-03-15T06:25:04.006Z,8.769266
2023-03-15T06:26:03.979Z,8.769297
2023-03-15T06:27:03.972Z,8.769247
2023-03-15T06:28:03.973Z,8.769290
2023-03-15T06:29:03.974Z,8.769258
2023-03-15T06:30:03.975Z,8.769298
2023-03-15T06:31:04.068Z,8.769325
2023-03-15T06:32:03.948Z,8.769300
2023-03-15T06:33:04.057Z,8.769273
2023-03-15T06:34:03.925Z,8.769277
2023-03-15T06:35:03.914Z,8.769247
2023-03-15T06:36:03.966Z,8.769351
2023-03-15T06:37:03.956Z,8.769280
2023-03-15T06:38:03.975Z,8.769306
2023-03-15T06:39:03.911Z,8.769333
2023-03-15T06:40:03.881Z,8.769280
2023-03-15T06:41:03.883Z,8.769300
2023-03-15T06:42:03.856Z,8.769312
2023-03-15T06:43:03.919Z,8.769306
2023-03-15T06:44:03.843Z,8.769363
2023-03-15T06:45:03.829Z,8.769324
2023-03-15T06:46:03.864Z,8.769308
2023-03-15T06:47:03.845Z,8.769324
2023-03-15T06:48:03.848Z,8.769291
2023-03-15T06:49:03.871Z,8.769336
2023-03-15T06:50:03.815Z,8.769315
2023-03-15T06:51:03.808Z,8.769311
2023-03-15T06:52:03.863Z,8.769307
2023-03-15T06:53:03.775Z,8.769319
2023-03-15T06:54:03.780Z,8.769294
2023-03-15T06:55:03.839Z,8.769279
2023-03-15T06:56:03.803Z,8.769288
2023-03-15T06:57:03.757Z,8.769330
2023-03-15T06:58:03.831Z,8.769331
2023-03-15T06:59:03.754Z,8.769335
2023-03-15T07:00:03.851Z,8.769366
2023-03-15T07:01:03.756Z,8.769320
2023-03-15T07:02:03.724Z,8.769341
2023-03-15T07:03:03.811Z,8.769301
2023-03-15T07:04:03.716Z,8.769303
2023-03-15T07:05:03.694Z,8.769323
2023-03-15T07:06:03.866Z,8.769366
2023-03-15T07:07:04.183Z,8.769322
2023-03-15T07:08:03.694Z,8.769339
2023-03-15T07:09:03.665Z,8.769282
2023-03-15T07:10:03.682Z,8.769287
2023-03-15T07:11:03.667Z,8.769295
2023-03-15T07:12:03.676Z,8.769295
2023-03-15T07:13:03.779Z,8.769302
2023-03-15T07:14:03.668Z,8.769300
2023-03-15T07:15:03.653Z,8.769314
2023-03-15T07:16:03.717Z,8.769332
2023-03-15T07:17:03.614Z,8.769362
2023-03-15T07:18:03.630Z,8.769316
2023-03-15T07:19:03.627Z,8.769301
2023-03-15T07:20:03.622Z,8.769354
2023-03-15T07:21:03.612Z,8.769284
2023-03-15T07:22:03.601Z,8.769319
2023-03-15T07:23:03.596Z,8.769332
2023-03-15T07:24:03.580Z,8.769325
2023-03-15T07:25:03.628Z,8.769312
2023-03-15T07:26:03.567Z,8.769361
2023-03-15T07:27:03.580Z,8.769319
2023-03-15T07:28:03.541Z,8.769288
2023-03-15T07:29:03.572Z,8.769327
2023-03-15T07:30:03.549Z,8.769343
2023-03-15T07:31:03.579Z,8.769337
2023-03-15T07:32:03.589Z,8.769352
2023-03-15T07:33:03.563Z,8.769318
2023-03-15T07:34:03.516Z,8.769339
2023-03-15T07:35:03.502Z,8.769299
2023-03-15T07:36:03.562Z,8.769314
2023-03-15T07:37:03.543Z,8.769381
2023-03-15T07:38:03.465Z,8.769382
2023-03-15T07:39:03.474Z,8.769351
2023-03-15T07:40:03.458Z,8.769321
2023-03-15T07:41:03.477Z,8.769286
2023-03-15T07:42:09.373Z,8.769300
2023-03-15T07:43:03.482Z,8.769344
2023-03-15T07:44:03.452Z,8.769276
2023-03-15T07:45:03.470Z,8.769379
2023-03-15T07:46:03.450Z,8.769357
2023-03-15T07:47:03.426Z,8.769350
2023-03-15T07:48:03.425Z,8.769363
2023-03-15T07:49:03.462Z,8.769315
2023-03-15T07:50:03.416Z,8.769345
2023-03-15T07:51:03.396Z,8.769290
2023-03-15T07:52:03.392Z,8.769347
2023-03-15T07:53:03.384Z,8.769334
2023-03-15T07:54:03.382Z,8.769341
2023-03-15T07:55:03.402Z,8.769344
2023-03-15T07:56:03.356Z,8.769339
2023-03-15T07:57:03.332Z,8.769289
2023-03-15T07:58:03.496Z,8.769272
2023-03-15T07:59:03.323Z,8.769337
2023-03-15T08:00:03.338Z,8.769361
2023-03-15T08:01:03.399Z,8.769358
2023-03-15T08:02:03.511Z,8.769295
2023-03-15T08:03:03.394Z,8.769299
2023-03-15T08:04:03.323Z,8.769359
2023-03-15T08:05:03.323Z,8.769329
2023-03-15T08:06:03.300Z,8.769343
2023-03-15T08:07:03.367Z,8.769326
2023-03-15T08:08:03.285Z,8.769327
2023-03-15T08:09:03.268Z,8.769326
2023-03-15T08:10:03.249Z,8.769386
2023-03-15T08:11:03.244Z,8.769385
2023-03-15T08:12:03.256Z,8.769341
2023-03-15T08:13:03.305Z,8.769355
2023-03-15T08:14:03.225Z,8.769345
2023-03-15T08:15:03.224Z,8.769376
2023-03-15T08:16:03.257Z,8.769342
2023-03-15T08:17:03.210Z,8.769348
2023-03-15T08:18:05.215Z,8.769366
2023-03-15T08:19:03.245Z,8.769309
2023-03-15T08:20:03.189Z,8.769362
2023-03-15T08:21:03.170Z,8.769351
2023-03-15T08:22:03.176Z,8.769368
2023-03-15T08:23:03.183Z,8.769371
2023-03-15T08:24:03.169Z,8.769346
2023-03-15T08:25:03.205Z,8.769356
2023-03-15T08:26:03.173Z,8.769383
2023-03-15T08:27:03.150Z,8.769417
2023-03-15T08:28:03.177Z,8.769401
2023-03-15T08:29:03.158Z,8.769444
2023-03-15T08:30:03.141Z,8.769458
2023-03-15T08:31:03.161Z,8.769472
2023-03-15T08:32:03.180Z,8.769412
2023-03-15T08:33:03.178Z,8.769341
2023-03-15T08:34:03.117Z,8.769376
2023-03-15T08:35:03.085Z,8.769423
2023-03-15T08:36:03.164Z,8.769420
2023-03-15T08:37:03.105Z,8.769352
2023-03-15T08:38:03.060Z,8.769439
2023-03-15T08:39:03.096Z,8.769406
2023-03-15T08:40:03.047Z,8.769359
2023-03-15T08:41:03.026Z,8.769425
2023-03-15T08:42:03.057Z,8.769392
2023-03-15T08:43:03.053Z,8.769414
2023-03-15T08:44:03.111Z,8.769396
2023-03-15T08:45:03.009Z,8.769377
2023-03-15T08:46:03.071Z,8.769354
2023-03-15T08:47:03.057Z,8.769397
2023-03-15T08:48:02.986Z,8.769366
2023-03-15T08:49:03.016Z,8.769396
2023-03-15T08:50:02.975Z,8.769423
2023-03-15T08:51:02.962Z,8.769371
2023-03-15T08:52:03.172Z,8.769383
2023-03-15T08:53:02.974Z,8.769386
2023-03-15T08:54:02.953Z,8.769356
2023-03-15T08:55:02.990Z,8.769370
2023-03-15T08:56:02.945Z,8.769394
2023-03-15T08:57:02.947Z,8.769376
2023-03-15T08:58:04.688Z,8.769370
2023-03-15T08:59:02.898Z,8.769367
2023-03-15T09:00:02.906Z,8.769355
2023-03-15T09:01:02.978Z,8.769350
2023-03-15T09:02:02.904Z,8.769393
2023-03-15T09:03:02.910Z,8.769423
2023-03-15T09:04:02.884Z,8.769407
2023-03-15T09:05:02.929Z,8.769389
2023-03-15T09:06:02.870Z,8.769357
2023-03-15T09:07:02.904Z,8.769401
2023-03-15T09:08:02.847Z,8.769373
2023-03-15T09:09:02.851Z,8.769373
2023-03-15T09:10:05.423Z,8.769403
2023-03-15T09:11:02.829Z,8.769341
2023-03-15T09:12:02.808Z,8.769383
2023-03-15T09:13:02.872Z,8.769399
2023-03-15T09:14:02.794Z,8.769412
2023-03-15T09:15:02.802Z,8.769343
2023-03-15T09:16:02.784Z,8.769351
2023-03-15T09:17:02.848Z,8.769395
2023-03-15T09:18:02.773Z,8.769353
2023-03-15T09:19:03.007Z,8.769362
2023-03-15T09:20:02.761Z,8.769341
2023-03-15T09:21:02.782Z,8.769286
2023-03-15T09:22:16.432Z,8.769330
2023-03-15T09:23:03.751Z,8.769308
2023-03-15T09:24:02.758Z,8.769300
2023-03-15T09:25:02.761Z,8.769343
2023-03-15T09:26:02.721Z,8.769386
2023-03-15T09:27:02.728Z,8.769303
2023-03-15T09:28:02.714Z,8.769268
2023-03-15T09:29:02.685Z,8.769280
2023-03-15T09:30:02.708Z,8.769348
2023-03-15T09:31:02.725Z,8.769329
2023-03-15T09:32:02.731Z,8.769279
2023-03-15T09:33:02.738Z,8.769321
2023-03-15T09:34:02.666Z,8.769318
2023-03-15T09:35:02.645Z,8.769301
2023-03-15T09:36:02.766Z,8.769309
2023-03-15T09:37:02.757Z,8.769376
2023-03-15T09:38:02.644Z,8.769354
2023-03-15T09:39:02.640Z,8.769363
2023-03-15T09:40:02.653Z,8.769266
2023-03-15T09:41:02.626Z,8.769273
2023-03-15T09:42:04.758Z,8.769311
2023-03-15T09:43:02.853Z,8.769360
2023-03-15T09:44:02.597Z,8.769351
2023-03-15T09:45:02.588Z,8.769352
2023-03-15T09:46:02.588Z,8.769374
2023-03-15T09:47:02.575Z,8.769363
2023-03-15T09:48:02.570Z,8.769413
2023-03-15T09:49:02.602Z,8.769404
2023-03-15T09:50:02.601Z,8.769407
2023-03-15T09:51:02.533Z,8.769381
2023-03-15T09:52:02.536Z,8.769377
2023-03-15T09:53:02.612Z,8.769348
2023-03-15T09:54:02.517Z,8.769398
2023-03-15T09:55:02.684Z,8.769373
2023-03-15T09:56:02.529Z,8.769397
2023-03-15T09:57:02.497Z,8.769377
2023-03-15T09:58:02.499Z,8.769405
2023-03-15T09:59:02.600Z,8.769378
2023-03-15T10:00:02.475Z,8.769390
2023-03-15T10:01:02.685Z,8.769403
2023-03-15T10:02:02.547Z,8.769330
2023-03-15T10:03:02.459Z,8.769361
2023-03-15T10:04:02.573Z,8.769325
2023-03-15T10:05:02.602Z,8.769323
2023-03-15T10:06:02.522Z,8.769317
2023-03-15T10:07:02.619Z,8.769270
2023-03-15T10:08:02.415Z,8.769333
2023-03-15T10:09:02.436Z,8.769349
2023-03-15T10:10:02.479Z,8.769278
2023-03-15T10:11:02.515Z,8.769318
2023-03-15T10:12:02.377Z,8.769356
2023-03-15T10:13:02.518Z,8.769319
2023-03-15T10:14:02.400Z,8.769270
2023-03-15T10:15:02.383Z,8.769274
2023-03-15T10:16:02.443Z,8.769322
2023-03-15T10:17:02.495Z,8.769286
2023-03-15T10:18:02.330Z,8.769341
2023-03-15T10:19:02.506Z,8.769313
2023-03-15T10:20:02.343Z,8.769341
2023-03-15T10:21:02.317Z,8.769238
2023-03-15T10:22:02.307Z,8.769312
2023-03-15T10:23:02.291Z,8.769303
2023-03-15T10:24:02.291Z,8.769319
2023-03-15T10:25:02.498Z,8.769284
2023-03-15T10:26:02.294Z,8.769225
2023-03-15T10:27:02.285Z,8.769121
2023-03-15T10:28:02.267Z,8.769285
2023-03-15T10:29:02.254Z,8.769266
2023-03-15T10:30:02.239Z,8.769349
2023-03-15T10:31:02.456Z,8.769273
2023-03-15T10:32:02.305Z,8.769296
2023-03-15T10:33:02.320Z,8.769285
2023-03-15T10:34:02.210Z,8.769276
2023-03-15T10:35:02.301Z,8.769300
2023-03-15T10:36:10.948Z,8.769294
2023-03-15T10:37:03.220Z,8.769321
2023-03-15T10:38:02.203Z,8.769328
2023-03-15T10:39:02.235Z,8.769320
2023-03-15T10:40:02.182Z,8.769332
2023-03-15T10:41:02.277Z,8.769326
2023-03-15T10:42:02.164Z,8.769327
2023-03-15T10:43:02.353Z,8.769377
2023-03-15T10:44:02.139Z,8.769326
2023-03-15T10:45:02.170Z,8.769324
2023-03-15T10:46:02.143Z,8.769256
2023-03-15T10:47:07.039Z,8.769294
2023-03-15T10:48:03.130Z,8.769302
2023-03-15T10:49:02.253Z,8.769341
2023-03-15T10:50:02.105Z,8.769337
2023-03-15T10:51:02.081Z,8.769314
2023-03-15T10:52:02.170Z,8.769281
2023-03-15T10:53:02.188Z,8.769310
2023-03-15T10:54:02.116Z,8.769323
2023-03-15T10:55:04.607Z,8.769340
2023-03-15T10:56:02.138Z,8.769328
2023-03-15T10:57:02.076Z,8.769361
2023-03-15T10:58:02.085Z,8.769329
2023-03-15T10:59:12.573Z,8.769315
2023-03-15T11:00:03.090Z,8.769327
2023-03-15T11:01:02.093Z,8.769341
2023-03-15T11:02:02.067Z,8.769344
2023-03-15T11:03:02.083Z,8.769368
2023-03-15T11:04:02.091Z,8.769340
2023-03-15T11:05:02.389Z,8.769307
2023-03-15T11:06:02.004Z,8.769307
2023-03-15T11:07:02.064Z,8.769301
2023-03-15T11:08:02.074Z,8.769308
2023-03-15T11:09:01.956Z,8.769341
2023-03-15T11:10:01.948Z,8.769290
2023-03-15T11:11:02.110Z,8.769269
2023-03-15T11:12:01.974Z,8.769243
2023-03-15T11:13:02.117Z,8.769268
2023-03-15T11:14:01.918Z,8.769253
2023-03-15T11:15:01.975Z,8.769266
2023-03-15T11:16:02.024Z,8.769258
2023-03-15T11:17:02.071Z,8.769215
2023-03-15T11:18:01.947Z,8.769166
2023-03-15T11:19:02.027Z,8.769200
2023-03-15T11:20:01.894Z,8.769297
2023-03-15T11:21:01.935Z,8.769295
2023-03-15T11:22:01.901Z,8.769324
2023-03-15T11:23:01.927Z,8.769328
2023-03-15T11:24:02.109Z,8.769337
2023-03-15T11:25:02.109Z,8.769283
2023-03-15T11:26:01.856Z,8.769294
2023-03-15T11:27:01.848Z,8.769327
2023-03-15T11:28:01.826Z,8.769349
2023-03-15T11:29:01.809Z,8.769298
2023-03-15T11:30:01.883Z,8.769323
2023-03-15T11:31:01.924Z,8.769272
2023-03-15T11:32:01.803Z,8.769301
2023-03-15T11:33:01.899Z,8.769328
2023-03-15T11:34:01.932Z,8.769317
2023-03-15T11:35:01.886Z,8.769305
2023-03-15T11:36:01.831Z,8.769269
2023-03-15T11:37:08.463Z,8.769325
2023-03-15T11:38:14.668Z,8.769337
2023-03-15T11:39:03.195Z,8.769341
2023-03-15T11:40:10.787Z,8.769340
2023-03-15T11:41:02.826Z,8.769324
2023-03-15T11:42:01.758Z,8.769337
2023-03-15T11:43:01.808Z,8.769352
2023-03-15T11:44:01.732Z,8.769326